sensor_id;sensor_type;location;lat;lon;timestamp;temperature;humidity
13928;DHT22;7036;50.834;4.718;2024-02-21T00:00:13;19.00;56.70
13928;DHT22;7036;50.834;4.718;2024-02-21T00:02:40;19.00;56.70
13928;DHT22;7036;50.834;4.718;2024-02-21T00:05:07;19.00;56.60
13928;DHT22;7036;50.834;4.718;2024-02-21T00:07:35;19.00;56.70
13928;DHT22;7036;50.834;4.718;2024-02-21T00:10:02;19.00;56.50
13928;DHT22;7036;50.834;4.718;2024-02-21T00:12:29;19.00;56.60
13928;DHT22;7036;50.834;4.718;2024-02-21T00:14:57;19.00;56.80
13928;DHT22;7036;50.834;4.718;2024-02-21T00:17:24;19.00;56.60
13928;DHT22;7036;50.834;4.718;2024-02-21T00:19:52;19.00;56.70
13928;DHT22;7036;50.834;4.718;2024-02-21T00:22:19;19.00;56.70
13928;DHT22;7036;50.834;4.718;2024-02-21T00:24:46;19.00;56.70
13928;DHT22;7036;50.834;4.718;2024-02-21T00:27:13;18.90;56.70
13928;DHT22;7036;50.834;4.718;2024-02-21T00:29:41;18.90;56.80
13928;DHT22;7036;50.834;4.718;2024-02-21T00:32:09;18.90;56.80
13928;DHT22;7036;50.834;4.718;2024-02-21T00:34:37;18.90;56.80
13928;DHT22;7036;50.834;4.718;2024-02-21T00:37:05;18.90;56.80
13928;DHT22;7036;50.834;4.718;2024-02-21T00:39:32;18.90;56.70
13928;DHT22;7036;50.834;4.718;2024-02-21T00:42:00;18.90;56.90
13928;DHT22;7036;50.834;4.718;2024-02-21T00:44:28;18.90;56.90
13928;DHT22;7036;50.834;4.718;2024-02-21T00:46:55;18.90;56.80
13928;DHT22;7036;50.834;4.718;2024-02-21T00:49:23;18.90;56.90
13928;DHT22;7036;50.834;4.718;2024-02-21T00:51:52;18.90;56.90
13928;DHT22;7036;50.834;4.718;2024-02-21T00:54:18;18.80;56.70
13928;DHT22;7036;50.834;4.718;2024-02-21T00:56:46;18.90;56.90
13928;DHT22;7036;50.834;4.718;2024-02-21T00:59:14;18.90;56.90
13928;DHT22;7036;50.834;4.718;2024-02-21T01:01:42;18.90;56.90
13928;DHT22;7036;50.834;4.718;2024-02-21T01:04:10;18.90;57.00
13928;DHT22;7036;50.834;4.718;2024-02-21T01:06:38;18.80;57.00
13928;DHT22;7036;50.834;4.718;2024-02-21T01:09:06;18.80;57.00
13928;DHT22;7036;50.834;4.718;2024-02-21T01:11:33;18.80;56.90
13928;DHT22;7036;50.834;4.718;2024-02-21T01:14:00;18.80;56.90
13928;DHT22;7036;50.834;4.718;2024-02-21T01:16:28;18.80;57.00
13928;DHT22;7036;50.834;4.718;2024-02-21T01:18:56;18.80;57.00
13928;DHT22;7036;50.834;4.718;2024-02-21T01:21:24;18.80;57.00
13928;DHT22;7036;50.834;4.718;2024-02-21T01:23:51;18.80;57.20
13928;DHT22;7036;50.834;4.718;2024-02-21T01:26:19;18.80;57.00
13928;DHT22;7036;50.834;4.718;2024-02-21T01:28:47;18.80;57.10
13928;DHT22;7036;50.834;4.718;2024-02-21T01:31:15;18.80;57.10
13928;DHT22;7036;50.834;4.718;2024-02-21T01:33:42;18.70;56.90
13928;DHT22;7036;50.834;4.718;2024-02-21T01:36:10;18.70;57.10
13928;DHT22;7036;50.834;4.718;2024-02-21T01:38:38;18.70;57.10
13928;DHT22;7036;50.834;4.718;2024-02-21T01:41:06;18.70;57.20
13928;DHT22;7036;50.834;4.718;2024-02-21T01:43:34;18.70;57.20
13928;DHT22;7036;50.834;4.718;2024-02-21T01:46:02;18.70;57.20
13928;DHT22;7036;50.834;4.718;2024-02-21T01:48:29;18.70;57.10
13928;DHT22;7036;50.834;4.718;2024-02-21T01:50:57;18.70;57.20
13928;DHT22;7036;50.834;4.718;2024-02-21T01:53:27;18.70;57.20
13928;DHT22;7036;50.834;4.718;2024-02-21T01:55:52;18.60;57.00
13928;DHT22;7036;50.834;4.718;2024-02-21T01:58:20;18.70;57.30
13928;DHT22;7036;50.834;4.718;2024-02-21T02:00:48;18.60;57.20
13928;DHT22;7036;50.834;4.718;2024-02-21T02:03:15;18.60;57.10
13928;DHT22;7036;50.834;4.718;2024-02-21T02:05:46;18.60;57.30
13928;DHT22;7036;50.834;4.718;2024-02-21T02:08:18;18.60;57.10
13928;DHT22;7036;50.834;4.718;2024-02-21T02:10:44;18.60;57.10
13928;DHT22;7036;50.834;4.718;2024-02-21T02:13:12;18.60;57.30
13928;DHT22;7036;50.834;4.718;2024-02-21T02:15:46;18.60;57.30
13928;DHT22;7036;50.834;4.718;2024-02-21T02:18:13;18.60;57.20
13928;DHT22;7036;50.834;4.718;2024-02-21T02:20:40;18.60;57.30
13928;DHT22;7036;50.834;4.718;2024-02-21T02:23:12;18.60;57.30
13928;DHT22;7036;50.834;4.718;2024-02-21T02:25:38;18.60;57.30
13928;DHT22;7036;50.834;4.718;2024-02-21T02:28:06;18.60;57.40
13928;DHT22;7036;50.834;4.718;2024-02-21T02:30:34;18.60;57.40
13928;DHT22;7036;50.834;4.718;2024-02-21T02:33:03;18.60;57.40
13928;DHT22;7036;50.834;4.718;2024-02-21T02:35:30;18.60;57.90
13928;DHT22;7036;50.834;4.718;2024-02-21T02:37:58;18.60;57.40
13928;DHT22;7036;50.834;4.718;2024-02-21T02:40:25;18.50;57.40
13928;DHT22;7036;50.834;4.718;2024-02-21T02:42:53;18.50;57.40
13928;DHT22;7036;50.834;4.718;2024-02-21T02:45:21;18.50;57.30
13928;DHT22;7036;50.834;4.718;2024-02-21T02:47:49;18.50;57.50
13928;DHT22;7036;50.834;4.718;2024-02-21T02:50:17;18.50;57.50
13928;DHT22;7036;50.834;4.718;2024-02-21T02:52:44;18.50;57.50
13928;DHT22;7036;50.834;4.718;2024-02-21T02:55:12;18.50;57.50
13928;DHT22;7036;50.834;4.718;2024-02-21T02:57:40;18.50;57.30
13928;DHT22;7036;50.834;4.718;2024-02-21T03:00:13;18.50;57.50
13928;DHT22;7036;50.834;4.718;2024-02-21T03:02:40;18.40;57.40
13928;DHT22;7036;50.834;4.718;2024-02-21T03:05:12;18.40;57.50
13928;DHT22;7036;50.834;4.718;2024-02-21T03:07:38;18.40;57.40
13928;DHT22;7036;50.834;4.718;2024-02-21T03:10:06;18.40;57.50
13928;DHT22;7036;50.834;4.718;2024-02-21T03:12:34;18.40;57.50
13928;DHT22;7036;50.834;4.718;2024-02-21T03:15:02;18.40;57.50
13928;DHT22;7036;50.834;4.718;2024-02-21T03:17:30;18.40;57.50
13928;DHT22;7036;50.834;4.718;2024-02-21T03:19:58;18.40;57.50
13928;DHT22;7036;50.834;4.718;2024-02-21T03:22:26;18.40;57.50
13928;DHT22;7036;50.834;4.718;2024-02-21T03:24:54;18.40;57.60
13928;DHT22;7036;50.834;4.718;2024-02-21T03:27:22;18.40;57.60
13928;DHT22;7036;50.834;4.718;2024-02-21T03:29:50;18.40;57.60
13928;DHT22;7036;50.834;4.718;2024-02-21T03:32:17;18.40;57.40
13928;DHT22;7036;50.834;4.718;2024-02-21T03:34:44;18.40;57.40
13928;DHT22;7036;50.834;4.718;2024-02-21T03:37:11;18.40;57.40
13928;DHT22;7036;50.834;4.718;2024-02-21T03:39:39;18.40;57.60
13928;DHT22;7036;50.834;4.718;2024-02-21T03:42:07;18.40;57.60
13928;DHT22;7036;50.834;4.718;2024-02-21T03:44:36;18.40;57.60
13928;DHT22;7036;50.834;4.718;2024-02-21T03:47:02;18.30;57.40
13928;DHT22;7036;50.834;4.718;2024-02-21T03:49:30;18.40;57.60
13928;DHT22;7036;50.834;4.718;2024-02-21T03:51:58;18.40;57.60
13928;DHT22;7036;50.834;4.718;2024-02-21T03:54:26;18.40;57.60
13928;DHT22;7036;50.834;4.718;2024-02-21T03:56:54;18.40;57.60
13928;DHT22;7036;50.834;4.718;2024-02-21T03:59:22;18.30;57.60
13928;DHT22;7036;50.834;4.718;2024-02-21T04:01:53;18.30;57.50
13928;DHT22;7036;50.834;4.718;2024-02-21T04:04:19;18.30;57.50
13928;DHT22;7036;50.834;4.718;2024-02-21T04:06:50;18.30;57.60
13928;DHT22;7036;50.834;4.718;2024-02-21T04:09:17;18.30;57.50
13928;DHT22;7036;50.834;4.718;2024-02-21T04:11:44;18.30;57.50
13928;DHT22;7036;50.834;4.718;2024-02-21T04:14:11;18.30;57.60
13928;DHT22;7036;50.834;4.718;2024-02-21T04:16:38;18.30;57.60
13928;DHT22;7036;50.834;4.718;2024-02-21T04:19:07;18.30;57.60
13928;DHT22;7036;50.834;4.718;2024-02-21T04:21:35;18.30;57.70
13928;DHT22;7036;50.834;4.718;2024-02-21T04:24:03;18.30;57.70
13928;DHT22;7036;50.834;4.718;2024-02-21T04:26:31;18.30;57.70
13928;DHT22;7036;50.834;4.718;2024-02-21T04:28:59;18.30;57.70
13928;DHT22;7036;50.834;4.718;2024-02-21T04:31:27;18.30;57.70
13928;DHT22;7036;50.834;4.718;2024-02-21T04:33:56;18.30;57.70
13928;DHT22;7036;50.834;4.718;2024-02-21T04:36:23;18.20;57.70
13928;DHT22;7036;50.834;4.718;2024-02-21T04:38:51;18.30;57.70
13928;DHT22;7036;50.834;4.718;2024-02-21T04:41:19;18.20;57.70
13928;DHT22;7036;50.834;4.718;2024-02-21T04:43:47;18.20;57.70
13928;DHT22;7036;50.834;4.718;2024-02-21T04:46:14;18.20;57.60
13928;DHT22;7036;50.834;4.718;2024-02-21T04:48:42;18.20;57.70
13928;DHT22;7036;50.834;4.718;2024-02-21T04:51:11;18.20;57.60
13928;DHT22;7036;50.834;4.718;2024-02-21T04:53:37;18.20;56.90
13928;DHT22;7036;50.834;4.718;2024-02-21T04:56:05;18.20;57.70
13928;DHT22;7036;50.834;4.718;2024-02-21T04:58:32;18.20;57.70
13928;DHT22;7036;50.834;4.718;2024-02-21T05:00:59;18.20;57.60
13928;DHT22;7036;50.834;4.718;2024-02-21T05:03:27;18.20;57.70
13928;DHT22;7036;50.834;4.718;2024-02-21T05:05:54;18.20;57.60
13928;DHT22;7036;50.834;4.718;2024-02-21T05:08:22;18.20;57.80
13928;DHT22;7036;50.834;4.718;2024-02-21T05:10:50;18.20;57.80
13928;DHT22;7036;50.834;4.718;2024-02-21T05:13:17;18.20;57.60
13928;DHT22;7036;50.834;4.718;2024-02-21T05:15:44;18.20;57.00
13928;DHT22;7036;50.834;4.718;2024-02-21T05:18:12;18.20;57.60
13928;DHT22;7036;50.834;4.718;2024-02-21T05:20:40;18.10;57.80
13928;DHT22;7036;50.834;4.718;2024-02-21T05:23:07;18.20;57.70
13928;DHT22;7036;50.834;4.718;2024-02-21T05:25:34;18.10;57.60
13928;DHT22;7036;50.834;4.718;2024-02-21T05:28:02;18.10;57.80
13928;DHT22;7036;50.834;4.718;2024-02-21T05:30:29;18.10;57.70
13928;DHT22;7036;50.834;4.718;2024-02-21T05:32:57;18.10;57.80
13928;DHT22;7036;50.834;4.718;2024-02-21T05:35:26;18.10;57.80
13928;DHT22;7036;50.834;4.718;2024-02-21T05:37:53;18.10;57.80
13928;DHT22;7036;50.834;4.718;2024-02-21T05:40:21;18.10;57.80
13928;DHT22;7036;50.834;4.718;2024-02-21T05:42:49;18.10;57.80
13928;DHT22;7036;50.834;4.718;2024-02-21T05:45:17;18.10;57.90
13928;DHT22;7036;50.834;4.718;2024-02-21T05:47:44;18.10;57.70
13928;DHT22;7036;50.834;4.718;2024-02-21T05:50:12;18.10;57.80
13928;DHT22;7036;50.834;4.718;2024-02-21T05:52:40;18.10;57.90
13928;DHT22;7036;50.834;4.718;2024-02-21T05:55:08;18.10;57.90
13928;DHT22;7036;50.834;4.718;2024-02-21T05:57:37;18.10;57.80
13928;DHT22;7036;50.834;4.718;2024-02-21T06:00:05;18.10;57.90
13928;DHT22;7036;50.834;4.718;2024-02-21T06:02:32;18.10;57.80
13928;DHT22;7036;50.834;4.718;2024-02-21T06:05:00;18.10;57.80
13928;DHT22;7036;50.834;4.718;2024-02-21T06:07:27;18.10;57.80
13928;DHT22;7036;50.834;4.718;2024-02-21T06:09:54;18.10;57.80
13928;DHT22;7036;50.834;4.718;2024-02-21T06:12:22;18.10;57.80
13928;DHT22;7036;50.834;4.718;2024-02-21T06:14:50;18.10;57.90
13928;DHT22;7036;50.834;4.718;2024-02-21T06:17:18;18.10;57.80
13928;DHT22;7036;50.834;4.718;2024-02-21T06:19:46;18.10;57.80
13928;DHT22;7036;50.834;4.718;2024-02-21T06:22:14;18.00;57.80
13928;DHT22;7036;50.834;4.718;2024-02-21T06:24:41;18.00;57.70
13928;DHT22;7036;50.834;4.718;2024-02-21T06:27:08;18.00;57.70
13928;DHT22;7036;50.834;4.718;2024-02-21T06:29:35;18.00;57.70
13928;DHT22;7036;50.834;4.718;2024-02-21T06:32:03;18.00;57.90
13928;DHT22;7036;50.834;4.718;2024-02-21T06:34:31;18.00;57.70
13928;DHT22;7036;50.834;4.718;2024-02-21T06:36:59;18.00;57.90
13928;DHT22;7036;50.834;4.718;2024-02-21T06:39:27;18.00;57.90
13928;DHT22;7036;50.834;4.718;2024-02-21T06:41:55;18.00;57.90
13928;DHT22;7036;50.834;4.718;2024-02-21T06:44:22;18.00;57.90
13928;DHT22;7036;50.834;4.718;2024-02-21T06:46:50;18.00;57.80
13928;DHT22;7036;50.834;4.718;2024-02-21T06:49:18;18.00;57.80
13928;DHT22;7036;50.834;4.718;2024-02-21T06:51:46;18.00;57.70
13928;DHT22;7036;50.834;4.718;2024-02-21T06:54:14;18.00;57.50
13928;DHT22;7036;50.834;4.718;2024-02-21T06:56:42;18.10;57.60
13928;DHT22;7036;50.834;4.718;2024-02-21T06:59:09;18.20;57.50
13928;DHT22;7036;50.834;4.718;2024-02-21T07:01:38;18.30;57.40
13928;DHT22;7036;50.834;4.718;2024-02-21T07:04:06;18.40;57.40
13928;DHT22;7036;50.834;4.718;2024-02-21T07:06:34;18.40;57.30
13928;DHT22;7036;50.834;4.718;2024-02-21T07:09:01;18.40;57.20
13928;DHT22;7036;50.834;4.718;2024-02-21T07:11:29;18.50;57.20
13928;DHT22;7036;50.834;4.718;2024-02-21T07:13:57;18.60;57.30
13928;DHT22;7036;50.834;4.718;2024-02-21T07:16:24;18.50;57.10
13928;DHT22;7036;50.834;4.718;2024-02-21T07:18:52;18.60;57.30
13928;DHT22;7036;50.834;4.718;2024-02-21T07:21:20;18.60;57.30
13928;DHT22;7036;50.834;4.718;2024-02-21T07:23:47;18.60;57.20
13928;DHT22;7036;50.834;4.718;2024-02-21T07:26:15;18.70;57.40
13928;DHT22;7036;50.834;4.718;2024-02-21T07:28:43;18.70;57.40
13928;DHT22;7036;50.834;4.718;2024-02-21T07:31:11;18.80;57.40
13928;DHT22;7036;50.834;4.718;2024-02-21T07:33:39;18.80;57.40
13928;DHT22;7036;50.834;4.718;2024-02-21T07:36:07;18.80;57.40
13928;DHT22;7036;50.834;4.718;2024-02-21T07:38:35;18.90;57.50
13928;DHT22;7036;50.834;4.718;2024-02-21T07:41:03;18.90;57.60
13928;DHT22;7036;50.834;4.718;2024-02-21T07:43:31;18.90;57.60
13928;DHT22;7036;50.834;4.718;2024-02-21T07:45:59;18.90;57.70
13928;DHT22;7036;50.834;4.718;2024-02-21T07:48:27;18.80;57.50
13928;DHT22;7036;50.834;4.718;2024-02-21T07:50:55;18.90;57.70
13928;DHT22;7036;50.834;4.718;2024-02-21T07:53:23;18.90;57.80
13928;DHT22;7036;50.834;4.718;2024-02-21T07:55:51;18.90;57.80
13928;DHT22;7036;50.834;4.718;2024-02-21T07:58:18;18.90;57.90
13928;DHT22;7036;50.834;4.718;2024-02-21T08:00:46;18.80;57.80
13928;DHT22;7036;50.834;4.718;2024-02-21T08:03:14;18.90;57.90
13928;DHT22;7036;50.834;4.718;2024-02-21T08:05:44;18.80;57.70
13928;DHT22;7036;50.834;4.718;2024-02-21T08:08:12;18.90;57.90
13928;DHT22;7036;50.834;4.718;2024-02-21T08:10:39;18.80;57.70
13928;DHT22;7036;50.834;4.718;2024-02-21T08:13:07;18.90;57.80
13928;DHT22;7036;50.834;4.718;2024-02-21T08:15:35;18.80;57.80
13928;DHT22;7036;50.834;4.718;2024-02-21T08:18:03;18.90;57.80
13928;DHT22;7036;50.834;4.718;2024-02-21T08:20:32;18.80;57.70
13928;DHT22;7036;50.834;4.718;2024-02-21T08:22:58;18.90;57.70
13928;DHT22;7036;50.834;4.718;2024-02-21T08:25:27;18.90;57.70
13928;DHT22;7036;50.834;4.718;2024-02-21T08:27:59;18.90;57.70
13928;DHT22;7036;50.834;4.718;2024-02-21T08:30:27;18.90;57.70
13928;DHT22;7036;50.834;4.718;2024-02-21T08:32:53;18.90;57.70
13928;DHT22;7036;50.834;4.718;2024-02-21T08:35:21;18.90;57.70
13928;DHT22;7036;50.834;4.718;2024-02-21T08:37:51;18.90;57.60
13928;DHT22;7036;50.834;4.718;2024-02-21T08:40:18;18.90;57.60
13928;DHT22;7036;50.834;4.718;2024-02-21T08:42:45;18.90;57.60
13928;DHT22;7036;50.834;4.718;2024-02-21T08:45:13;18.90;57.70
13928;DHT22;7036;50.834;4.718;2024-02-21T08:47:40;18.90;57.60
13928;DHT22;7036;50.834;4.718;2024-02-21T08:50:08;18.90;57.70
13928;DHT22;7036;50.834;4.718;2024-02-21T08:52:38;18.90;57.60
13928;DHT22;7036;50.834;4.718;2024-02-21T08:55:06;18.90;57.60
13928;DHT22;7036;50.834;4.718;2024-02-21T08:57:33;18.90;57.50
13928;DHT22;7036;50.834;4.718;2024-02-21T09:00:00;18.90;57.40
13928;DHT22;7036;50.834;4.718;2024-02-21T09:02:27;18.90;57.40
13928;DHT22;7036;50.834;4.718;2024-02-21T09:04:55;18.90;56.80
13928;DHT22;7036;50.834;4.718;2024-02-21T09:07:22;18.90;57.30
13928;DHT22;7036;50.834;4.718;2024-02-21T09:09:51;18.80;57.20
13928;DHT22;7036;50.834;4.718;2024-02-21T09:12:18;18.90;57.20
13928;DHT22;7036;50.834;4.718;2024-02-21T09:14:46;18.90;57.30
13928;DHT22;7036;50.834;4.718;2024-02-21T09:17:13;18.80;57.10
13928;DHT22;7036;50.834;4.718;2024-02-21T09:19:41;18.90;57.20
13928;DHT22;7036;50.834;4.718;2024-02-21T09:22:09;18.90;57.20
13928;DHT22;7036;50.834;4.718;2024-02-21T09:24:37;18.90;57.10
13928;DHT22;7036;50.834;4.718;2024-02-21T09:27:05;18.90;57.10
13928;DHT22;7036;50.834;4.718;2024-02-21T09:29:33;18.90;57.10
13928;DHT22;7036;50.834;4.718;2024-02-21T09:32:00;18.90;56.90
13928;DHT22;7036;50.834;4.718;2024-02-21T09:34:28;18.90;57.00
13928;DHT22;7036;50.834;4.718;2024-02-21T09:36:56;18.90;57.00
13928;DHT22;7036;50.834;4.718;2024-02-21T09:39:24;18.90;56.90
13928;DHT22;7036;50.834;4.718;2024-02-21T09:41:58;18.90;56.90
13928;DHT22;7036;50.834;4.718;2024-02-21T09:44:21;18.90;56.80
13928;DHT22;7036;50.834;4.718;2024-02-21T09:46:55;18.90;56.90
13928;DHT22;7036;50.834;4.718;2024-02-21T09:49:34;18.90;56.80
13928;DHT22;7036;50.834;4.718;2024-02-21T09:52:01;18.90;56.70
13928;DHT22;7036;50.834;4.718;2024-02-21T09:54:29;18.90;56.90
13928;DHT22;7036;50.834;4.718;2024-02-21T09:57:02;18.90;56.70
13928;DHT22;7036;50.834;4.718;2024-02-21T09:59:30;18.90;56.80
13928;DHT22;7036;50.834;4.718;2024-02-21T10:01:55;18.90;56.70
13928;DHT22;7036;50.834;4.718;2024-02-21T10:04:23;18.90;56.70
13928;DHT22;7036;50.834;4.718;2024-02-21T10:06:52;19.00;56.80
13928;DHT22;7036;50.834;4.718;2024-02-21T10:09:26;18.90;56.70
13928;DHT22;7036;50.834;4.718;2024-02-21T10:11:50;19.00;56.70
13928;DHT22;7036;50.834;4.718;2024-02-21T10:14:16;19.00;56.70
13928;DHT22;7036;50.834;4.718;2024-02-21T10:16:44;18.90;56.60
13928;DHT22;7036;50.834;4.718;2024-02-21T10:19:18;19.00;56.70
13928;DHT22;7036;50.834;4.718;2024-02-21T10:21:57;19.00;56.60
13928;DHT22;7036;50.834;4.718;2024-02-21T10:24:12;19.00;56.60
13928;DHT22;7036;50.834;4.718;2024-02-21T10:26:39;19.00;56.80
13928;DHT22;7036;50.834;4.718;2024-02-21T10:29:07;19.00;56.60
13928;DHT22;7036;50.834;4.718;2024-02-21T10:31:35;19.00;56.80
13928;DHT22;7036;50.834;4.718;2024-02-21T10:34:04;19.00;56.80
13928;DHT22;7036;50.834;4.718;2024-02-21T10:36:30;19.00;56.70
13928;DHT22;7036;50.834;4.718;2024-02-21T10:38:58;19.00;56.80
13928;DHT22;7036;50.834;4.718;2024-02-21T10:41:25;19.00;56.70
13928;DHT22;7036;50.834;4.718;2024-02-21T10:43:54;19.00;56.80
13928;DHT22;7036;50.834;4.718;2024-02-21T10:46:21;19.00;56.70
13928;DHT22;7036;50.834;4.718;2024-02-21T10:48:55;19.00;56.80
13928;DHT22;7036;50.834;4.718;2024-02-21T10:51:17;19.00;56.80
13928;DHT22;7036;50.834;4.718;2024-02-21T10:54:17;19.00;56.60
13928;DHT22;7036;50.834;4.718;2024-02-21T10:56:40;19.00;56.60
13928;DHT22;7036;50.834;4.718;2024-02-21T10:59:08;19.00;56.70
13928;DHT22;7036;50.834;4.718;2024-02-21T11:01:36;19.00;56.70
13928;DHT22;7036;50.834;4.718;2024-02-21T11:04:07;19.00;56.70
13928;DHT22;7036;50.834;4.718;2024-02-21T11:06:34;19.00;56.50
13928;DHT22;7036;50.834;4.718;2024-02-21T11:09:05;19.00;56.70
13928;DHT22;7036;50.834;4.718;2024-02-21T11:14:10;19.00;56.60
13928;DHT22;7036;50.834;4.718;2024-02-21T11:16:38;19.00;56.80
13928;DHT22;7036;50.834;4.718;2024-02-21T11:19:05;19.00;56.60
13928;DHT22;7036;50.834;4.718;2024-02-21T11:21:34;19.00;56.60
13928;DHT22;7036;50.834;4.718;2024-02-21T11:24:01;19.00;56.60
13928;DHT22;7036;50.834;4.718;2024-02-21T11:26:29;19.00;56.80
13928;DHT22;7036;50.834;4.718;2024-02-21T11:29:03;19.00;56.80
13928;DHT22;7036;50.834;4.718;2024-02-21T11:31:44;19.00;56.60
13928;DHT22;7036;50.834;4.718;2024-02-21T11:34:11;19.00;56.60
13928;DHT22;7036;50.834;4.718;2024-02-21T11:39:25;18.90;56.60
13928;DHT22;7036;50.834;4.718;2024-02-21T11:42:07;18.90;56.40
13928;DHT22;7036;50.834;4.718;2024-02-21T11:44:36;18.90;56.30
13928;DHT22;7036;50.834;4.718;2024-02-21T11:47:09;18.90;56.40
13928;DHT22;7036;50.834;4.718;2024-02-21T11:49:44;18.90;56.40
13928;DHT22;7036;50.834;4.718;2024-02-21T11:52:09;18.90;56.30
13928;DHT22;7036;50.834;4.718;2024-02-21T11:54:37;18.90;56.50
13928;DHT22;7036;50.834;4.718;2024-02-21T11:57:05;18.90;56.50
13928;DHT22;7036;50.834;4.718;2024-02-21T11:59:33;18.90;56.40
13928;DHT22;7036;50.834;4.718;2024-02-21T12:02:01;18.90;56.50
13928;DHT22;7036;50.834;4.718;2024-02-21T12:04:29;18.90;56.40
13928;DHT22;7036;50.834;4.718;2024-02-21T12:06:57;18.90;56.40
13928;DHT22;7036;50.834;4.718;2024-02-21T12:09:26;18.90;56.60
13928;DHT22;7036;50.834;4.718;2024-02-21T12:12:02;18.90;56.30
13928;DHT22;7036;50.834;4.718;2024-02-21T12:14:28;18.90;56.30
13928;DHT22;7036;50.834;4.718;2024-02-21T12:16:55;18.90;56.30
13928;DHT22;7036;50.834;4.718;2024-02-21T12:19:22;18.90;56.40
13928;DHT22;7036;50.834;4.718;2024-02-21T12:21:50;18.90;56.60
13928;DHT22;7036;50.834;4.718;2024-02-21T12:24:21;18.90;56.60
13928;DHT22;7036;50.834;4.718;2024-02-21T12:26:49;18.90;56.60
13928;DHT22;7036;50.834;4.718;2024-02-21T12:29:15;18.80;56.40
13928;DHT22;7036;50.834;4.718;2024-02-21T12:31:43;18.90;56.50
13928;DHT22;7036;50.834;4.718;2024-02-21T12:34:11;18.90;56.60
13928;DHT22;7036;50.834;4.718;2024-02-21T12:36:42;18.80;56.50
13928;DHT22;7036;50.834;4.718;2024-02-21T12:39:09;18.90;56.40
13928;DHT22;7036;50.834;4.718;2024-02-21T12:41:37;18.80;56.50
13928;DHT22;7036;50.834;4.718;2024-02-21T12:44:06;18.80;56.40
13928;DHT22;7036;50.834;4.718;2024-02-21T12:46:36;18.80;56.50
13928;DHT22;7036;50.834;4.718;2024-02-21T12:49:03;18.80;56.40
13928;DHT22;7036;50.834;4.718;2024-02-21T12:51:31;18.80;56.50
13928;DHT22;7036;50.834;4.718;2024-02-21T12:53:59;18.80;56.50
13928;DHT22;7036;50.834;4.718;2024-02-21T12:56:26;18.80;56.40
13928;DHT22;7036;50.834;4.718;2024-02-21T12:58:54;18.80;56.50
13928;DHT22;7036;50.834;4.718;2024-02-21T13:01:22;18.80;56.40
13928;DHT22;7036;50.834;4.718;2024-02-21T13:03:50;18.80;56.40
13928;DHT22;7036;50.834;4.718;2024-02-21T13:06:18;18.80;56.50
13928;DHT22;7036;50.834;4.718;2024-02-21T13:08:46;18.80;56.50
13928;DHT22;7036;50.834;4.718;2024-02-21T13:11:13;18.80;56.30
13928;DHT22;7036;50.834;4.718;2024-02-21T13:13:41;18.90;56.50
13928;DHT22;7036;50.834;4.718;2024-02-21T13:16:08;18.80;56.30
13928;DHT22;7036;50.834;4.718;2024-02-21T13:18:35;18.90;56.40
13928;DHT22;7036;50.834;4.718;2024-02-21T13:21:03;18.90;56.40
13928;DHT22;7036;50.834;4.718;2024-02-21T13:23:30;18.90;56.30
13928;DHT22;7036;50.834;4.718;2024-02-21T13:25:57;18.90;56.30
13928;DHT22;7036;50.834;4.718;2024-02-21T13:28:25;18.90;56.40
13928;DHT22;7036;50.834;4.718;2024-02-21T13:30:53;18.90;56.40
13928;DHT22;7036;50.834;4.718;2024-02-21T13:33:21;18.90;56.40
13928;DHT22;7036;50.834;4.718;2024-02-21T13:35:49;18.90;56.40
13928;DHT22;7036;50.834;4.718;2024-02-21T13:38:18;18.90;56.40
13928;DHT22;7036;50.834;4.718;2024-02-21T13:40:44;18.90;56.40
13928;DHT22;7036;50.834;4.718;2024-02-21T13:43:12;18.90;56.40
13928;DHT22;7036;50.834;4.718;2024-02-21T13:45:40;18.90;56.40
13928;DHT22;7036;50.834;4.718;2024-02-21T13:48:08;18.90;56.30
13928;DHT22;7036;50.834;4.718;2024-02-21T13:50:35;19.00;56.80
13928;DHT22;7036;50.834;4.718;2024-02-21T13:53:03;19.00;56.70
13928;DHT22;7036;50.834;4.718;2024-02-21T13:55:30;19.00;56.90
13928;DHT22;7036;50.834;4.718;2024-02-21T13:57:57;19.00;57.20
13928;DHT22;7036;50.834;4.718;2024-02-21T14:00:24;19.00;57.40
13928;DHT22;7036;50.834;4.718;2024-02-21T14:02:52;19.10;57.60
13928;DHT22;7036;50.834;4.718;2024-02-21T14:05:20;19.10;57.50
13928;DHT22;7036;50.834;4.718;2024-02-21T14:07:47;19.00;56.70
13928;DHT22;7036;50.834;4.718;2024-02-21T14:10:14;19.10;57.40
13928;DHT22;7036;50.834;4.718;2024-02-21T14:12:42;19.10;57.50
13928;DHT22;7036;50.834;4.718;2024-02-21T14:15:10;19.10;57.40
13928;DHT22;7036;50.834;4.718;2024-02-21T14:17:38;19.10;57.40
13928;DHT22;7036;50.834;4.718;2024-02-21T14:20:07;19.10;57.40
13928;DHT22;7036;50.834;4.718;2024-02-21T14:22:33;19.10;57.20
13928;DHT22;7036;50.834;4.718;2024-02-21T14:25:01;19.10;57.30
13928;DHT22;7036;50.834;4.718;2024-02-21T14:27:29;19.10;57.30
13928;DHT22;7036;50.834;4.718;2024-02-21T14:29:57;19.10;57.30
13928;DHT22;7036;50.834;4.718;2024-02-21T14:32:24;19.10;57.20
13928;DHT22;7036;50.834;4.718;2024-02-21T14:34:52;19.10;57.30
13928;DHT22;7036;50.834;4.718;2024-02-21T14:37:20;19.10;57.30
13928;DHT22;7036;50.834;4.718;2024-02-21T14:39:48;19.10;57.20
13928;DHT22;7036;50.834;4.718;2024-02-21T14:42:16;19.20;57.20
13928;DHT22;7036;50.834;4.718;2024-02-21T14:44:44;19.20;57.20
13928;DHT22;7036;50.834;4.718;2024-02-21T14:47:11;19.10;57.00
13928;DHT22;7036;50.834;4.718;2024-02-21T14:49:39;19.10;57.10
13928;DHT22;7036;50.834;4.718;2024-02-21T14:52:07;19.10;57.10
13928;DHT22;7036;50.834;4.718;2024-02-21T14:54:35;19.10;57.10
13928;DHT22;7036;50.834;4.718;2024-02-21T14:57:03;19.10;57.10
13928;DHT22;7036;50.834;4.718;2024-02-21T14:59:31;19.20;57.20
13928;DHT22;7036;50.834;4.718;2024-02-21T15:01:59;19.10;57.10
13928;DHT22;7036;50.834;4.718;2024-02-21T15:04:27;19.20;57.20
13928;DHT22;7036;50.834;4.718;2024-02-21T15:06:56;19.20;57.10
13928;DHT22;7036;50.834;4.718;2024-02-21T15:09:23;19.20;57.00
13928;DHT22;7036;50.834;4.718;2024-02-21T15:11:50;19.20;57.00
13928;DHT22;7036;50.834;4.718;2024-02-21T15:14:17;19.20;57.00
13928;DHT22;7036;50.834;4.718;2024-02-21T15:16:45;19.20;57.10
13928;DHT22;7036;50.834;4.718;2024-02-21T15:19:12;19.10;56.90
13928;DHT22;7036;50.834;4.718;2024-02-21T15:21:39;19.20;57.00
13928;DHT22;7036;50.834;4.718;2024-02-21T15:24:07;19.20;57.10
13928;DHT22;7036;50.834;4.718;2024-02-21T15:26:35;19.10;57.10
13928;DHT22;7036;50.834;4.718;2024-02-21T15:29:03;19.10;57.10
13928;DHT22;7036;50.834;4.718;2024-02-21T15:31:31;19.20;57.20
13928;DHT22;7036;50.834;4.718;2024-02-21T15:33:58;19.20;57.10
13928;DHT22;7036;50.834;4.718;2024-02-21T15:36:26;19.20;57.10
13928;DHT22;7036;50.834;4.718;2024-02-21T15:38:54;19.10;57.00
13928;DHT22;7036;50.834;4.718;2024-02-21T15:41:23;19.20;56.90
13928;DHT22;7036;50.834;4.718;2024-02-21T15:43:49;19.20;56.30
13928;DHT22;7036;50.834;4.718;2024-02-21T15:46:16;19.10;56.90
13928;DHT22;7036;50.834;4.718;2024-02-21T15:48:44;19.20;56.90
13928;DHT22;7036;50.834;4.718;2024-02-21T15:51:12;19.20;57.00
13928;DHT22;7036;50.834;4.718;2024-02-21T15:53:40;19.20;57.00